Hauptseite
METAR-TAF:

METAR-TAF

Flughäfen :

Flughafen Erfurt-Weimar

Erfurt, Deutschland

Breite: 50-59N, Länge: 010-58E, Höhe: 315 m

Beobachtung

Neuester Wetterbericht von vor 10 Minuten, um 23:20 UTC
Wind 4 kt aus Süd/Südwest, variierte zwischen Süd/Südost und Südwest
Temperatur 16°C
Luftfeuchtigkeit 82%
Luftdruck 1021 hPa
Sichtweite 10 km oder mehr
keine Wolken unter 1500 m und keine Kumulonimbus oder Gewitterwolken

METAR: EDDE 212320Z 21004KT 160V220 CAVOK 16/13 Q1021

Zeit: 01:30 (23:30 UTC)

Prognose

Neuester Wetterbericht von vor 6 Stunden und 30 Minuten, um 17:00 UTC
Gültige Prognose vom 21 um 18 UTC bis 22 um 18 UTC
Wind 7 kt aus Nordost
Sichtweite 10 km oder mehr
keine Wolken unter 1500 m und keine Kumulonimbus oder Gewitterwolken
Übergehend zu
vom 22 um 02 UTC bis 22 um 05 UTC
Wind 6 kt aus Ost/Südost

TAF: EDDE 211700Z 2118/2218 04007KT CAVOK BECMG 2202/2205 12006KT

Wetterbeobachtungen und Prognosen von mehr als 4000 Flughäfen (METAR und TAF Bericht).

Die verfügbaren Stationen werden durch gelbe und rote Markierungen auf der Karte dargestellt.

Führen Sie die Maus auf sie, um den Namen der Station zu sehen.

Darauf klicken, um die Beobachtung von Wetterbeobachtungen und Prognosen zu sehen.

Um die Karte zu ändern : klicken Sie auf den grünen Tasten mit einem schwarzen Kreuz Zum Vergrößern, auf den grünen Button mit einem Gedankenstrich zu verkleinern, oder auf die grünen Pfeile für benachbarte Karten.


METAR-TAF: